Nome, AK

1:54 AM AKST on February 12, 2016 (GMT -0900)
BA Airport | | Change Station
CLOSE
Current Station
Personal Weather Station
Location: Nome, AK
Elevation: 37 ft
Nearby Weather Stations

Elev 37 ft 64.51 °N, 165.45 °W | Updated 4 minutes ago

Clear
Clear
-0.9 °F
Feels Like -1 °F
N
0.0
Wind Variable Wind from SSE
Gusts 5.0 mph

Today
High -- | Low -- °F
--% Chance of Precip.
Yesterday
High -- | Low -- °F
Precip. -- in
Pressure 29.67 in
Visibility 10.0 miles
Clouds Clear
Windchill -1 °F
Dew Point -5 °F
Humidity 84%
Rainfall 0.00 in
Snow Depth Not available.
10:09 AM 6:23 PM
Waxing Crescent, 19% visible
METAR PAOM 120953Z 00000KT 10SM CLR M21/M23 A2966 RMK SLP046 I1000 T12111228 VIA AUTODIAL
Pressure 29.67 in
Visibility 10.0 miles
Clouds Clear
Windchill -1 °F
Dew Point -5 °F
Humidity 84%
Rainfall 0.00 in
Snow Depth Not available.
10:09 AM 6:23 PM
Waxing Crescent, 19% visible
METAR PAOM 120953Z 00000KT 10SM CLR M21/M23 A2966 RMK SLP046 I1000 T12111228 VIA AUTODIAL

10-Day Weather Forecast

Almanac

Astronomy

Feb. 12, 2016 Rise Set
Actual Time
Civil Twilight
Nautical Twilight
Astronomical Twilight
Moon
Length of Visible Light
Length of Day
Tomorrow will be .
, % of the Moon is Illuminated

Today's Extremes

State Highs State Lows

Community

WunderPhotos

Upload Photos

1,892,289 photos uploaded!

WunderBlog® & News

Nearby

Air Quality

  Air Quality AQ Index Pollutant
Not available.

Snow Depth

Station Depth Elevation

Earthquake Activity

City Distance Mag. Time & Date
Minimum magnitude displayed is 2.5.

Coastal Water Temperatures

Place Temperature

Stations

Nearby Weather Stations

Station Location Temp. Windchill Dew Point Humidity Wind Precip. Elev Updated Type
                   

Watches & Warnings

There are currently no watches in effect.